sensor_id;sensor_type;location;lat;lon;timestamp;temperature;humidity
69189;DHT22;56302;52.322;5.926;2022-09-17T00:00:14;10.70;91.60
69189;DHT22;56302;52.322;5.926;2022-09-17T00:02:40;10.70;91.20
69189;DHT22;56302;52.322;5.926;2022-09-17T00:05:09;10.70;90.80
69189;DHT22;56302;52.322;5.926;2022-09-17T00:07:35;10.70;90.50
69189;DHT22;56302;52.322;5.926;2022-09-17T00:10:00;10.70;90.60
69189;DHT22;56302;52.322;5.926;2022-09-17T00:12:26;10.70;90.90
69189;DHT22;56302;52.322;5.926;2022-09-17T00:14:51;10.70;91.00
69189;DHT22;56302;52.322;5.926;2022-09-17T00:17:17;10.70;90.70
69189;DHT22;56302;52.322;5.926;2022-09-17T00:19:42;10.70;90.60
69189;DHT22;56302;52.322;5.926;2022-09-17T00:22:08;10.60;90.80
69189;DHT22;56302;52.322;5.926;2022-09-17T00:24:33;10.60;91.20
69189;DHT22;56302;52.322;5.926;2022-09-17T00:26:59;10.60;91.30
69189;DHT22;56302;52.322;5.926;2022-09-17T00:29:24;10.60;91.30
69189;DHT22;56302;52.322;5.926;2022-09-17T00:31:50;10.70;91.10
69189;DHT22;56302;52.322;5.926;2022-09-17T00:34:15;10.60;91.00
69189;DHT22;56302;52.322;5.926;2022-09-17T00:36:41;10.60;91.10
69189;DHT22;56302;52.322;5.926;2022-09-17T00:39:09;10.60;91.10
69189;DHT22;56302;52.322;5.926;2022-09-17T00:41:36;10.60;91.00
69189;DHT22;56302;52.322;5.926;2022-09-17T00:49:50;10.50;90.70
69189;DHT22;56302;52.322;5.926;2022-09-17T00:52:27;10.50;90.60
69189;DHT22;56302;52.322;5.926;2022-09-17T00:55:23;10.40;90.60
69189;DHT22;56302;52.322;5.926;2022-09-17T00:57:52;10.40;90.40
69189;DHT22;56302;52.322;5.926;2022-09-17T01:00:20;10.40;89.90
69189;DHT22;56302;52.322;5.926;2022-09-17T01:02:45;10.40;90.00
69189;DHT22;56302;52.322;5.926;2022-09-17T01:05:12;10.30;90.30
69189;DHT22;56302;52.322;5.926;2022-09-17T01:08:01;10.20;90.00
69189;DHT22;56302;52.322;5.926;2022-09-17T01:24:27;10.20;89.70
69189;DHT22;56302;52.322;5.926;2022-09-17T01:33:13;10.20;90.20
69189;DHT22;56302;52.322;5.926;2022-09-17T01:35:58;10.30;90.20
69189;DHT22;56302;52.322;5.926;2022-09-17T01:38:27;10.20;90.60
69189;DHT22;56302;52.322;5.926;2022-09-17T01:41:07;10.20;91.00
69189;DHT22;56302;52.322;5.926;2022-09-17T01:46:20;10.00;92.40
69189;DHT22;56302;52.322;5.926;2022-09-17T01:48:49;10.00;92.70
69189;DHT22;56302;52.322;5.926;2022-09-17T01:51:23;10.00;93.20
69189;DHT22;56302;52.322;5.926;2022-09-17T01:56:57;10.00;94.10
69189;DHT22;56302;52.322;5.926;2022-09-17T01:59:42;10.00;94.20
69189;DHT22;56302;52.322;5.926;2022-09-17T02:02:35;10.00;94.10
69189;DHT22;56302;52.322;5.926;2022-09-17T02:05:20;10.10;94.00
69189;DHT22;56302;52.322;5.926;2022-09-17T02:07:56;10.20;93.30
69189;DHT22;56302;52.322;5.926;2022-09-17T02:10:28;10.20;92.80
69189;DHT22;56302;52.322;5.926;2022-09-17T02:13:05;10.20;92.40
69189;DHT22;56302;52.322;5.926;2022-09-17T02:15:37;10.20;92.40
69189;DHT22;56302;52.322;5.926;2022-09-17T02:18:26;10.30;92.00
69189;DHT22;56302;52.322;5.926;2022-09-17T02:20:57;10.30;91.90
69189;DHT22;56302;52.322;5.926;2022-09-17T02:23:29;10.20;92.20
69189;DHT22;56302;52.322;5.926;2022-09-17T02:26:15;10.20;92.20
69189;DHT22;56302;52.322;5.926;2022-09-17T02:28:49;10.20;92.40
69189;DHT22;56302;52.322;5.926;2022-09-17T02:31:15;10.20;92.40
69189;DHT22;56302;52.322;5.926;2022-09-17T02:33:43;10.10;92.40
69189;DHT22;56302;52.322;5.926;2022-09-17T02:36:11;10.20;92.30
69189;DHT22;56302;52.322;5.926;2022-09-17T02:38:37;10.10;92.70
69189;DHT22;56302;52.322;5.926;2022-09-17T02:41:15;10.00;93.00
69189;DHT22;56302;52.322;5.926;2022-09-17T02:55:02;10.10;92.80
69189;DHT22;56302;52.322;5.926;2022-09-17T03:00:19;10.10;92.30
69189;DHT22;56302;52.322;5.926;2022-09-17T03:02:49;10.10;92.30
69189;DHT22;56302;52.322;5.926;2022-09-17T03:05:17;10.00;92.40
69189;DHT22;56302;52.322;5.926;2022-09-17T03:07:43;10.00;92.40
69189;DHT22;56302;52.322;5.926;2022-09-17T03:10:09;9.90;92.20
69189;DHT22;56302;52.322;5.926;2022-09-17T03:12:35;9.90;91.90
69189;DHT22;56302;52.322;5.926;2022-09-17T03:15:00;9.90;91.90
69189;DHT22;56302;52.322;5.926;2022-09-17T03:17:26;9.90;91.60
69189;DHT22;56302;52.322;5.926;2022-09-17T03:19:51;9.90;91.30
69189;DHT22;56302;52.322;5.926;2022-09-17T03:22:17;9.90;91.20
69189;DHT22;56302;52.322;5.926;2022-09-17T03:24:42;9.90;90.90
69189;DHT22;56302;52.322;5.926;2022-09-17T03:27:08;9.80;91.20
69189;DHT22;56302;52.322;5.926;2022-09-17T03:29:33;9.60;92.40
69189;DHT22;56302;52.322;5.926;2022-09-17T03:31:59;9.60;93.00
69189;DHT22;56302;52.322;5.926;2022-09-17T03:34:25;9.70;92.70
69189;DHT22;56302;52.322;5.926;2022-09-17T03:36:51;9.70;92.70
69189;DHT22;56302;52.322;5.926;2022-09-17T03:39:16;9.70;93.10
69189;DHT22;56302;52.322;5.926;2022-09-17T03:41:42;9.70;93.30
69189;DHT22;56302;52.322;5.926;2022-09-17T03:44:07;9.70;93.40
69189;DHT22;56302;52.322;5.926;2022-09-17T03:46:35;9.70;93.40
69189;DHT22;56302;52.322;5.926;2022-09-17T03:49:00;9.80;93.20
69189;DHT22;56302;52.322;5.926;2022-09-17T03:51:26;9.80;93.20
69189;DHT22;56302;52.322;5.926;2022-09-17T03:53:51;9.80;93.10
69189;DHT22;56302;52.322;5.926;2022-09-17T03:56:17;9.80;93.20
69189;DHT22;56302;52.322;5.926;2022-09-17T03:58:42;9.80;93.30
69189;DHT22;56302;52.322;5.926;2022-09-17T04:01:08;9.80;93.30
69189;DHT22;56302;52.322;5.926;2022-09-17T04:03:33;9.80;93.40
69189;DHT22;56302;52.322;5.926;2022-09-17T04:05:59;9.80;93.30
69189;DHT22;56302;52.322;5.926;2022-09-17T04:08:25;9.70;93.10
69189;DHT22;56302;52.322;5.926;2022-09-17T04:10:50;9.70;93.10
69189;DHT22;56302;52.322;5.926;2022-09-17T04:13:16;9.70;93.10
69189;DHT22;56302;52.322;5.926;2022-09-17T04:15:43;9.80;93.10
69189;DHT22;56302;52.322;5.926;2022-09-17T04:18:09;9.70;93.20
69189;DHT22;56302;52.322;5.926;2022-09-17T04:20:35;9.80;93.10
69189;DHT22;56302;52.322;5.926;2022-09-17T04:23:01;9.80;92.80
69189;DHT22;56302;52.322;5.926;2022-09-17T04:25:26;9.70;92.90
69189;DHT22;56302;52.322;5.926;2022-09-17T04:27:52;9.60;93.30
69189;DHT22;56302;52.322;5.926;2022-09-17T04:30:17;9.50;94.00
69189;DHT22;56302;52.322;5.926;2022-09-17T04:32:44;9.60;94.20
69189;DHT22;56302;52.322;5.926;2022-09-17T04:35:10;9.60;94.20
69189;DHT22;56302;52.322;5.926;2022-09-17T04:37:36;9.60;94.00
69189;DHT22;56302;52.322;5.926;2022-09-17T04:40:03;9.70;93.50
69189;DHT22;56302;52.322;5.926;2022-09-17T04:42:29;9.70;93.70
69189;DHT22;56302;52.322;5.926;2022-09-17T04:44:54;9.70;93.60
69189;DHT22;56302;52.322;5.926;2022-09-17T04:47:20;9.70;93.30
69189;DHT22;56302;52.322;5.926;2022-09-17T04:49:45;9.70;93.30
69189;DHT22;56302;52.322;5.926;2022-09-17T04:52:11;9.70;93.10
69189;DHT22;56302;52.322;5.926;2022-09-17T04:54:36;9.70;93.10
69189;DHT22;56302;52.322;5.926;2022-09-17T04:57:02;9.70;93.40
69189;DHT22;56302;52.322;5.926;2022-09-17T04:59:27;9.70;93.30
69189;DHT22;56302;52.322;5.926;2022-09-17T05:01:53;9.70;93.40
69189;DHT22;56302;52.322;5.926;2022-09-17T05:04:19;9.70;93.30
69189;DHT22;56302;52.322;5.926;2022-09-17T05:06:45;9.70;93.10
69189;DHT22;56302;52.322;5.926;2022-09-17T05:09:10;9.70;93.00
69189;DHT22;56302;52.322;5.926;2022-09-17T05:11:36;9.60;92.90
69189;DHT22;56302;52.322;5.926;2022-09-17T05:14:01;9.60;92.80
69189;DHT22;56302;52.322;5.926;2022-09-17T05:16:27;9.60;92.80
69189;DHT22;56302;52.322;5.926;2022-09-17T05:18:52;9.50;92.60
69189;DHT22;56302;52.322;5.926;2022-09-17T05:21:18;9.60;92.60
69189;DHT22;56302;52.322;5.926;2022-09-17T05:23:45;9.50;92.30
69189;DHT22;56302;52.322;5.926;2022-09-17T05:26:10;9.50;92.30
69189;DHT22;56302;52.322;5.926;2022-09-17T05:28:36;9.50;92.20
69189;DHT22;56302;52.322;5.926;2022-09-17T05:31:02;9.50;92.30
69189;DHT22;56302;52.322;5.926;2022-09-17T05:33:28;9.50;92.50
69189;DHT22;56302;52.322;5.926;2022-09-17T05:35:53;9.50;92.80
69189;DHT22;56302;52.322;5.926;2022-09-17T05:38:19;9.50;93.10
69189;DHT22;56302;52.322;5.926;2022-09-17T05:40:45;9.50;93.30
69189;DHT22;56302;52.322;5.926;2022-09-17T05:43:11;9.50;93.40
69189;DHT22;56302;52.322;5.926;2022-09-17T05:45:37;9.50;93.40
69189;DHT22;56302;52.322;5.926;2022-09-17T05:48:05;9.50;93.30
69189;DHT22;56302;52.322;5.926;2022-09-17T05:50:31;9.50;93.20
69189;DHT22;56302;52.322;5.926;2022-09-17T05:52:59;9.50;93.30
69189;DHT22;56302;52.322;5.926;2022-09-17T05:55:27;9.50;93.20
69189;DHT22;56302;52.322;5.926;2022-09-17T05:57:52;9.50;93.20
69189;DHT22;56302;52.322;5.926;2022-09-17T06:00:18;9.50;93.10
69189;DHT22;56302;52.322;5.926;2022-09-17T06:02:43;9.60;92.90
69189;DHT22;56302;52.322;5.926;2022-09-17T06:05:09;9.60;92.90
69189;DHT22;56302;52.322;5.926;2022-09-17T06:07:35;9.50;93.00
69189;DHT22;56302;52.322;5.926;2022-09-17T06:10:03;9.40;93.30
69189;DHT22;56302;52.322;5.926;2022-09-17T06:12:29;9.40;93.30
69189;DHT22;56302;52.322;5.926;2022-09-17T06:14:54;9.50;93.20
69189;DHT22;56302;52.322;5.926;2022-09-17T06:17:20;9.50;92.90
69189;DHT22;56302;52.322;5.926;2022-09-17T06:19:45;9.50;92.60
69189;DHT22;56302;52.322;5.926;2022-09-17T06:22:11;9.50;92.70
69189;DHT22;56302;52.322;5.926;2022-09-17T06:24:36;9.60;92.60
69189;DHT22;56302;52.322;5.926;2022-09-17T06:27:02;9.70;92.70
69189;DHT22;56302;52.322;5.926;2022-09-17T06:29:27;9.80;92.80
69189;DHT22;56302;52.322;5.926;2022-09-17T06:31:53;9.90;93.30
69189;DHT22;56302;52.322;5.926;2022-09-17T06:34:19;9.90;93.80
69189;DHT22;56302;52.322;5.926;2022-09-17T06:36:45;9.90;94.10
69189;DHT22;56302;52.322;5.926;2022-09-17T06:39:10;9.90;94.50
69189;DHT22;56302;52.322;5.926;2022-09-17T06:41:37;9.80;94.80
69189;DHT22;56302;52.322;5.926;2022-09-17T06:44:03;9.80;95.00
69189;DHT22;56302;52.322;5.926;2022-09-17T06:46:28;9.80;95.00
69189;DHT22;56302;52.322;5.926;2022-09-17T06:48:54;9.80;94.70
69189;DHT22;56302;52.322;5.926;2022-09-17T06:51:20;9.80;94.80
69189;DHT22;56302;52.322;5.926;2022-09-17T06:53:47;9.90;94.60
69189;DHT22;56302;52.322;5.926;2022-09-17T06:56:13;10.00;94.50
69189;DHT22;56302;52.322;5.926;2022-09-17T06:58:39;10.10;94.40
69189;DHT22;56302;52.322;5.926;2022-09-17T07:01:09;10.20;94.20
69189;DHT22;56302;52.322;5.926;2022-09-17T07:03:34;10.20;93.90
69189;DHT22;56302;52.322;5.926;2022-09-17T07:06:10;10.30;94.10
69189;DHT22;56302;52.322;5.926;2022-09-17T07:08:37;10.30;94.10
69189;DHT22;56302;52.322;5.926;2022-09-17T07:11:04;10.40;94.10
69189;DHT22;56302;52.322;5.926;2022-09-17T07:13:29;10.80;94.40
69189;DHT22;56302;52.322;5.926;2022-09-17T07:15:57;11.20;93.60
69189;DHT22;56302;52.322;5.926;2022-09-17T07:18:23;11.50;93.30
69189;DHT22;56302;52.322;5.926;2022-09-17T07:20:55;11.40;91.70
69189;DHT22;56302;52.322;5.926;2022-09-17T07:23:24;11.10;91.50
69189;DHT22;56302;52.322;5.926;2022-09-17T07:25:55;11.30;92.00
69189;DHT22;56302;52.322;5.926;2022-09-17T07:28:21;11.80;92.20
69189;DHT22;56302;52.322;5.926;2022-09-17T07:30:48;12.20;90.40
69189;DHT22;56302;52.322;5.926;2022-09-17T07:33:15;12.50;89.60
69189;DHT22;56302;52.322;5.926;2022-09-17T07:35:40;12.70;88.30
69189;DHT22;56302;52.322;5.926;2022-09-17T07:38:06;12.90;87.40
69189;DHT22;56302;52.322;5.926;2022-09-17T07:40:31;13.00;87.10
69189;DHT22;56302;52.322;5.926;2022-09-17T07:42:57;12.80;85.50
69189;DHT22;56302;52.322;5.926;2022-09-17T07:45:23;12.70;88.70
69189;DHT22;56302;52.322;5.926;2022-09-17T07:47:49;12.90;89.60
69189;DHT22;56302;52.322;5.926;2022-09-17T07:50:14;12.70;89.50
69189;DHT22;56302;52.322;5.926;2022-09-17T07:52:47;12.70;89.30
69189;DHT22;56302;52.322;5.926;2022-09-17T07:55:14;12.70;88.80
69189;DHT22;56302;52.322;5.926;2022-09-17T07:57:40;12.80;88.60
69189;DHT22;56302;52.322;5.926;2022-09-17T08:00:06;13.00;88.70
69189;DHT22;56302;52.322;5.926;2022-09-17T08:02:32;13.20;88.20
69189;DHT22;56302;52.322;5.926;2022-09-17T08:04:58;13.40;86.60
69189;DHT22;56302;52.322;5.926;2022-09-17T08:07:23;13.60;87.20
69189;DHT22;56302;52.322;5.926;2022-09-17T08:09:49;13.80;86.90
69189;DHT22;56302;52.322;5.926;2022-09-17T08:12:14;14.00;85.80
69189;DHT22;56302;52.322;5.926;2022-09-17T08:14:42;14.10;86.30
69189;DHT22;56302;52.322;5.926;2022-09-17T08:17:08;14.10;85.20
69189;DHT22;56302;52.322;5.926;2022-09-17T08:19:33;14.30;85.40
69189;DHT22;56302;52.322;5.926;2022-09-17T08:21:59;14.40;84.50
69189;DHT22;56302;52.322;5.926;2022-09-17T08:24:25;14.20;84.30
69189;DHT22;56302;52.322;5.926;2022-09-17T08:26:50;13.80;82.90
69189;DHT22;56302;52.322;5.926;2022-09-17T08:29:16;13.50;84.60
69189;DHT22;56302;52.322;5.926;2022-09-17T08:31:41;13.20;86.10
69189;DHT22;56302;52.322;5.926;2022-09-17T08:34:08;12.80;88.10
69189;DHT22;56302;52.322;5.926;2022-09-17T08:36:34;12.90;88.90
69189;DHT22;56302;52.322;5.926;2022-09-17T08:39:00;12.80;89.30
69189;DHT22;56302;52.322;5.926;2022-09-17T08:41:51;12.60;89.20
69189;DHT22;56302;52.322;5.926;2022-09-17T08:49:57;12.40;91.50
69189;DHT22;56302;52.322;5.926;2022-09-17T08:55:03;12.80;90.80
69189;DHT22;56302;52.322;5.926;2022-09-17T09:00:17;13.20;89.70
69189;DHT22;56302;52.322;5.926;2022-09-17T09:02:59;13.30;88.70
69189;DHT22;56302;52.322;5.926;2022-09-17T09:05:45;13.20;89.50
69189;DHT22;56302;52.322;5.926;2022-09-17T09:10:55;13.00;88.40
69189;DHT22;56302;52.322;5.926;2022-09-17T09:13:24;12.80;88.70
69189;DHT22;56302;52.322;5.926;2022-09-17T09:16:02;12.90;89.20
69189;DHT22;56302;52.322;5.926;2022-09-17T09:18:34;12.90;88.80
69189;DHT22;56302;52.322;5.926;2022-09-17T09:21:16;13.20;88.60
69189;DHT22;56302;52.322;5.926;2022-09-17T09:23:54;13.30;88.00
69189;DHT22;56302;52.322;5.926;2022-09-17T09:26:43;13.40;85.80
69189;DHT22;56302;52.322;5.926;2022-09-17T09:34:32;13.70;86.80
69189;DHT22;56302;52.322;5.926;2022-09-17T09:37:31;13.80;86.50
69189;DHT22;56302;52.322;5.926;2022-09-17T09:40:29;13.90;85.60
69189;DHT22;56302;52.322;5.926;2022-09-17T09:43:00;14.00;86.70
69189;DHT22;56302;52.322;5.926;2022-09-17T09:59:17;12.70;84.90
69189;DHT22;56302;52.322;5.926;2022-09-17T10:01:43;12.60;86.40
69189;DHT22;56302;52.322;5.926;2022-09-17T10:04:29;12.50;87.50
69189;DHT22;56302;52.322;5.926;2022-09-17T10:07:02;12.50;86.90
69189;DHT22;56302;52.322;5.926;2022-09-17T10:09:28;12.40;87.20
69189;DHT22;56302;52.322;5.926;2022-09-17T10:14:36;12.30;87.60
69189;DHT22;56302;52.322;5.926;2022-09-17T10:17:19;12.40;88.10
69189;DHT22;56302;52.322;5.926;2022-09-17T10:22:41;13.10;86.90
69189;DHT22;56302;52.322;5.926;2022-09-17T10:25:27;13.20;85.10
69189;DHT22;56302;52.322;5.926;2022-09-17T10:27:54;13.50;84.50
69189;DHT22;56302;52.322;5.926;2022-09-17T10:30:25;13.70;84.50
69189;DHT22;56302;52.322;5.926;2022-09-17T10:33:14;14.00;84.70
69189;DHT22;56302;52.322;5.926;2022-09-17T10:36:03;14.20;84.30
69189;DHT22;56302;52.322;5.926;2022-09-17T10:38:36;14.60;84.20
69189;DHT22;56302;52.322;5.926;2022-09-17T10:41:12;14.70;82.60
69189;DHT22;56302;52.322;5.926;2022-09-17T10:43:39;14.70;80.30
69189;DHT22;56302;52.322;5.926;2022-09-17T10:46:08;14.20;79.20
69189;DHT22;56302;52.322;5.926;2022-09-17T10:48:42;13.50;82.60
69189;DHT22;56302;52.322;5.926;2022-09-17T10:51:09;12.90;84.70
69189;DHT22;56302;52.322;5.926;2022-09-17T10:54:15;12.80;86.40
69189;DHT22;56302;52.322;5.926;2022-09-17T10:56:51;13.00;87.50
69189;DHT22;56302;52.322;5.926;2022-09-17T11:07:40;13.90;85.20
69189;DHT22;56302;52.322;5.926;2022-09-17T11:10:23;14.10;84.70
69189;DHT22;56302;52.322;5.926;2022-09-17T11:13:13;14.30;84.90
69189;DHT22;56302;52.322;5.926;2022-09-17T11:18:35;14.10;83.90
69189;DHT22;56302;52.322;5.926;2022-09-17T11:24:17;14.00;84.00
69189;DHT22;56302;52.322;5.926;2022-09-17T11:27:22;13.60;83.90
69189;DHT22;56302;52.322;5.926;2022-09-17T11:30:13;12.80;85.50
69189;DHT22;56302;52.322;5.926;2022-09-17T11:32:58;12.50;87.00
69189;DHT22;56302;52.322;5.926;2022-09-17T11:35:32;12.40;86.30
69189;DHT22;56302;52.322;5.926;2022-09-17T11:40:55;12.50;88.20
69189;DHT22;56302;52.322;5.926;2022-09-17T11:43:31;13.10;87.90
69189;DHT22;56302;52.322;5.926;2022-09-17T11:48:56;13.70;86.50
69189;DHT22;56302;52.322;5.926;2022-09-17T11:51:30;13.90;84.60
69189;DHT22;56302;52.322;5.926;2022-09-17T11:54:28;13.90;83.80
69189;DHT22;56302;52.322;5.926;2022-09-17T11:59:33;13.90;85.30
69189;DHT22;56302;52.322;5.926;2022-09-17T12:02:27;13.80;83.30
69189;DHT22;56302;52.322;5.926;2022-09-17T12:05:04;13.50;81.20
69189;DHT22;56302;52.322;5.926;2022-09-17T12:07:55;13.40;83.30
69189;DHT22;56302;52.322;5.926;2022-09-17T12:10:34;13.30;82.30
69189;DHT22;56302;52.322;5.926;2022-09-17T12:16:16;13.90;82.50
69189;DHT22;56302;52.322;5.926;2022-09-17T12:21:42;13.70;77.90
69189;DHT22;56302;52.322;5.926;2022-09-17T12:40:50;13.80;80.20
69189;DHT22;56302;52.322;5.926;2022-09-17T12:49:06;12.30;85.60
69189;DHT22;56302;52.322;5.926;2022-09-17T12:52:20;12.20;85.30
69189;DHT22;56302;52.322;5.926;2022-09-17T12:54:54;12.20;86.10
69189;DHT22;56302;52.322;5.926;2022-09-17T13:00:13;12.40;86.30
69189;DHT22;56302;52.322;5.926;2022-09-17T13:02:54;12.60;86.70
69189;DHT22;56302;52.322;5.926;2022-09-17T13:05:45;12.70;86.10
69189;DHT22;56302;52.322;5.926;2022-09-17T13:08:25;12.70;85.70
69189;DHT22;56302;52.322;5.926;2022-09-17T13:22:15;13.10;85.20
69189;DHT22;56302;52.322;5.926;2022-09-17T13:24:42;13.20;84.10
69189;DHT22;56302;52.322;5.926;2022-09-17T13:27:19;13.20;83.70
69189;DHT22;56302;52.322;5.926;2022-09-17T13:37:57;13.90;79.60
69189;DHT22;56302;52.322;5.926;2022-09-17T13:42:58;13.00;81.10
69189;DHT22;56302;52.322;5.926;2022-09-17T13:45:33;12.70;83.20
69189;DHT22;56302;52.322;5.926;2022-09-17T13:48:08;12.60;83.50
69189;DHT22;56302;52.322;5.926;2022-09-17T13:50:39;12.50;82.30
69189;DHT22;56302;52.322;5.926;2022-09-17T13:55:51;12.50;85.20
69189;DHT22;56302;52.322;5.926;2022-09-17T14:01:04;12.50;83.60
69189;DHT22;56302;52.322;5.926;2022-09-17T14:21:42;12.60;77.80
69189;DHT22;56302;52.322;5.926;2022-09-17T14:24:44;12.70;78.90
69189;DHT22;56302;52.322;5.926;2022-09-17T14:32:43;13.10;78.40
69189;DHT22;56302;52.322;5.926;2022-09-17T14:37:45;13.20;76.20
69189;DHT22;56302;52.322;5.926;2022-09-17T14:40:16;13.30;74.70
69189;DHT22;56302;52.322;5.926;2022-09-17T14:42:43;13.30;75.80
69189;DHT22;56302;52.322;5.926;2022-09-17T14:45:25;13.20;76.10
69189;DHT22;56302;52.322;5.926;2022-09-17T14:48:26;13.20;77.30
69189;DHT22;56302;52.322;5.926;2022-09-17T14:53:37;13.30;76.80
69189;DHT22;56302;52.322;5.926;2022-09-17T14:56:02;13.30;77.40
69189;DHT22;56302;52.322;5.926;2022-09-17T14:58:36;13.20;76.80
69189;DHT22;56302;52.322;5.926;2022-09-17T15:01:03;13.20;77.70
69189;DHT22;56302;52.322;5.926;2022-09-17T15:03:28;13.10;76.80
69189;DHT22;56302;52.322;5.926;2022-09-17T15:05:54;13.20;77.40
69189;DHT22;56302;52.322;5.926;2022-09-17T15:08:22;13.30;79.40
69189;DHT22;56302;52.322;5.926;2022-09-17T15:10:55;13.20;80.50
69189;DHT22;56302;52.322;5.926;2022-09-17T15:13:33;13.00;80.60
69189;DHT22;56302;52.322;5.926;2022-09-17T15:16:04;12.90;80.00
69189;DHT22;56302;52.322;5.926;2022-09-17T15:18:38;12.80;82.10
69189;DHT22;56302;52.322;5.926;2022-09-17T15:21:14;12.70;83.00
69189;DHT22;56302;52.322;5.926;2022-09-17T15:23:41;12.60;82.70
69189;DHT22;56302;52.322;5.926;2022-09-17T15:26:07;12.50;83.70
69189;DHT22;56302;52.322;5.926;2022-09-17T15:28:39;12.40;82.40
69189;DHT22;56302;52.322;5.926;2022-09-17T15:31:14;12.30;81.50
69189;DHT22;56302;52.322;5.926;2022-09-17T15:33:41;12.30;82.20
69189;DHT22;56302;52.322;5.926;2022-09-17T15:36:14;12.30;83.10
69189;DHT22;56302;52.322;5.926;2022-09-17T15:38:41;12.30;83.60
69189;DHT22;56302;52.322;5.926;2022-09-17T15:41:33;12.40;85.00
69189;DHT22;56302;52.322;5.926;2022-09-17T15:44:16;12.40;84.50
69189;DHT22;56302;52.322;5.926;2022-09-17T15:46:44;12.40;83.20
69189;DHT22;56302;52.322;5.926;2022-09-17T15:49:31;12.40;83.50
69189;DHT22;56302;52.322;5.926;2022-09-17T15:52:19;12.50;82.20
69189;DHT22;56302;52.322;5.926;2022-09-17T15:54:49;12.40;80.50
69189;DHT22;56302;52.322;5.926;2022-09-17T15:57:15;12.40;80.00
69189;DHT22;56302;52.322;5.926;2022-09-17T15:59:41;12.50;81.30
69189;DHT22;56302;52.322;5.926;2022-09-17T16:02:27;12.50;79.30
69189;DHT22;56302;52.322;5.926;2022-09-17T16:07:39;12.50;78.20
69189;DHT22;56302;52.322;5.926;2022-09-17T16:10:06;12.50;79.40
69189;DHT22;56302;52.322;5.926;2022-09-17T16:12:33;12.50;78.70
69189;DHT22;56302;52.322;5.926;2022-09-17T16:14:59;12.50;79.60
69189;DHT22;56302;52.322;5.926;2022-09-17T16:17:40;12.50;80.70
69189;DHT22;56302;52.322;5.926;2022-09-17T16:22:32;12.50;82.50
69189;DHT22;56302;52.322;5.926;2022-09-17T16:24:58;12.50;82.30
69189;DHT22;56302;52.322;5.926;2022-09-17T16:27:25;12.50;80.90
69189;DHT22;56302;52.322;5.926;2022-09-17T16:30:04;12.50;80.60
69189;DHT22;56302;52.322;5.926;2022-09-17T16:32:30;12.50;82.30
69189;DHT22;56302;52.322;5.926;2022-09-17T16:34:56;12.50;83.10
69189;DHT22;56302;52.322;5.926;2022-09-17T16:37:21;12.50;83.40
69189;DHT22;56302;52.322;5.926;2022-09-17T16:39:47;12.40;82.50
69189;DHT22;56302;52.322;5.926;2022-09-17T16:42:13;12.30;81.50
69189;DHT22;56302;52.322;5.926;2022-09-17T16:44:38;12.20;80.30
69189;DHT22;56302;52.322;5.926;2022-09-17T16:47:04;12.20;82.60
69189;DHT22;56302;52.322;5.926;2022-09-17T16:49:30;12.10;81.30
69189;DHT22;56302;52.322;5.926;2022-09-17T16:51:56;12.10;82.20
69189;DHT22;56302;52.322;5.926;2022-09-17T16:54:21;12.10;82.90
69189;DHT22;56302;52.322;5.926;2022-09-17T16:56:47;12.00;82.90
69189;DHT22;56302;52.322;5.926;2022-09-17T16:59:12;12.00;82.40
69189;DHT22;56302;52.322;5.926;2022-09-17T17:01:38;12.00;82.40
69189;DHT22;56302;52.322;5.926;2022-09-17T17:04:03;12.00;83.20
69189;DHT22;56302;52.322;5.926;2022-09-17T17:06:29;11.90;82.70
69189;DHT22;56302;52.322;5.926;2022-09-17T17:08:56;11.90;82.80
69189;DHT22;56302;52.322;5.926;2022-09-17T17:11:22;11.90;82.50
69189;DHT22;56302;52.322;5.926;2022-09-17T17:13:48;11.90;83.30
69189;DHT22;56302;52.322;5.926;2022-09-17T17:16:13;11.90;84.40
69189;DHT22;56302;52.322;5.926;2022-09-17T17:18:43;11.90;84.10
69189;DHT22;56302;52.322;5.926;2022-09-17T17:21:10;11.90;84.70
69189;DHT22;56302;52.322;5.926;2022-09-17T17:23:36;11.90;84.70
69189;DHT22;56302;52.322;5.926;2022-09-17T17:26:02;11.80;83.70
69189;DHT22;56302;52.322;5.926;2022-09-17T17:28:34;11.90;85.30
69189;DHT22;56302;52.322;5.926;2022-09-17T17:31:01;11.70;86.50
69189;DHT22;56302;52.322;5.926;2022-09-17T17:33:27;11.70;87.70
69189;DHT22;56302;52.322;5.926;2022-09-17T17:35:53;11.60;87.90
69189;DHT22;56302;52.322;5.926;2022-09-17T17:38:18;11.60;88.20
69189;DHT22;56302;52.322;5.926;2022-09-17T17:40:44;11.50;88.90
69189;DHT22;56302;52.322;5.926;2022-09-17T17:43:10;11.50;89.40
69189;DHT22;56302;52.322;5.926;2022-09-17T17:45:37;11.50;89.80
69189;DHT22;56302;52.322;5.926;2022-09-17T17:48:03;11.50;90.10
69189;DHT22;56302;52.322;5.926;2022-09-17T17:50:29;11.50;89.90
69189;DHT22;56302;52.322;5.926;2022-09-17T17:52:54;11.50;89.60
69189;DHT22;56302;52.322;5.926;2022-09-17T17:55:20;11.40;89.40
69189;DHT22;56302;52.322;5.926;2022-09-17T17:57:46;11.30;90.10
69189;DHT22;56302;52.322;5.926;2022-09-17T18:00:12;11.30;90.60
69189;DHT22;56302;52.322;5.926;2022-09-17T18:02:39;11.30;91.30
69189;DHT22;56302;52.322;5.926;2022-09-17T18:05:05;11.40;91.40
69189;DHT22;56302;52.322;5.926;2022-09-17T18:07:30;11.40;91.20
69189;DHT22;56302;52.322;5.926;2022-09-17T18:09:56;11.40;91.10
69189;DHT22;56302;52.322;5.926;2022-09-17T18:12:21;11.30;91.40
69189;DHT22;56302;52.322;5.926;2022-09-17T18:14:47;11.30;91.70
69189;DHT22;56302;52.322;5.926;2022-09-17T18:17:12;11.20;91.80
69189;DHT22;56302;52.322;5.926;2022-09-17T18:19:38;11.20;92.80
69189;DHT22;56302;52.322;5.926;2022-09-17T18:22:03;11.30;92.90
69189;DHT22;56302;52.322;5.926;2022-09-17T18:24:29;11.30;92.60
69189;DHT22;56302;52.322;5.926;2022-09-17T18:26:54;11.30;92.50
69189;DHT22;56302;52.322;5.926;2022-09-17T18:29:20;11.30;92.60
69189;DHT22;56302;52.322;5.926;2022-09-17T18:31:45;11.40;92.60
69189;DHT22;56302;52.322;5.926;2022-09-17T18:34:15;11.30;92.70
69189;DHT22;56302;52.322;5.926;2022-09-17T18:36:59;11.30;92.70
69189;DHT22;56302;52.322;5.926;2022-09-17T18:39:25;11.30;92.60
69189;DHT22;56302;52.322;5.926;2022-09-17T18:41:50;11.30;92.70
69189;DHT22;56302;52.322;5.926;2022-09-17T18:44:16;11.30;92.60
69189;DHT22;56302;52.322;5.926;2022-09-17T18:46:45;11.30;92.60
69189;DHT22;56302;52.322;5.926;2022-09-17T18:49:12;11.30;92.60
69189;DHT22;56302;52.322;5.926;2022-09-17T18:51:37;11.30;92.60
69189;DHT22;56302;52.322;5.926;2022-09-17T18:54:03;11.20;92.70
69189;DHT22;56302;52.322;5.926;2022-09-17T18:56:30;11.20;92.60
69189;DHT22;56302;52.322;5.926;2022-09-17T18:58:58;11.30;92.90
69189;DHT22;56302;52.322;5.926;2022-09-17T19:01:27;11.20;92.70
69189;DHT22;56302;52.322;5.926;2022-09-17T19:03:53;11.30;92.40
69189;DHT22;56302;52.322;5.926;2022-09-17T19:06:19;11.20;92.30
69189;DHT22;56302;52.322;5.926;2022-09-17T19:08:45;11.20;92.40
69189;DHT22;56302;52.322;5.926;2022-09-17T19:11:11;11.20;92.60